sensor_id;sensor_type;location;lat;lon;timestamp;pressure;altitude;pressure_sealevel;temperature;humidity
9059;BME280;4564;42.034;25.834;2023-04-27T07:32:43;100058.63;;;16.62;68.22
9059;BME280;4564;42.034;25.834;2023-04-27T07:35:11;100055.53;;;17.00;64.91
9059;BME280;4564;42.034;25.834;2023-04-27T07:37:39;100060.03;;;16.83;66.56
9059;BME280;4564;42.034;25.834;2023-04-27T07:40:06;100071.56;;;16.73;66.11
9059;BME280;4564;42.034;25.834;2023-04-27T07:42:39;100074.06;;;16.56;68.51
9059;BME280;4564;42.034;25.834;2023-04-27T07:45:06;100074.66;;;16.28;65.16
9059;BME280;4564;42.034;25.834;2023-04-27T07:47:33;100077.78;;;16.14;67.37
9059;BME280;4564;42.034;25.834;2023-04-27T07:50:01;100078.47;;;15.91;67.45
9059;BME280;4564;42.034;25.834;2023-04-27T07:52:28;100077.78;;;15.95;69.24
9059;BME280;4564;42.034;25.834;2023-04-27T07:54:55;100078.75;;;16.01;71.14
9059;BME280;4564;42.034;25.834;2023-04-27T07:57:22;100071.28;;;16.26;69.42
9059;BME280;4564;42.034;25.834;2023-04-27T07:59:48;100071.25;;;16.63;66.86
9059;BME280;4564;42.034;25.834;2023-04-27T08:02:15;100080.06;;;16.47;67.80
9059;BME280;4564;42.034;25.834;2023-04-27T08:04:42;100089.25;;;16.04;65.69
9059;BME280;4564;42.034;25.834;2023-04-27T08:07:10;100077.25;;;15.87;69.92
9059;BME280;4564;42.034;25.834;2023-04-27T08:09:36;100011.09;;;16.08;67.89
9059;BME280;4564;42.034;25.834;2023-04-27T08:12:03;100075.28;;;16.90;63.85
9059;BME280;4564;42.034;25.834;2023-04-27T08:14:30;100073.75;;;16.94;65.70
9059;BME280;4564;42.034;25.834;2023-04-27T08:16:59;100077.47;;;17.11;63.39
9059;BME280;4564;42.034;25.834;2023-04-27T08:19:25;100077.78;;;17.56;65.83
9059;BME280;4564;42.034;25.834;2023-04-27T08:21:52;100077.09;;;17.96;61.71
9059;BME280;4564;42.034;25.834;2023-04-27T08:24:20;100080.00;;;18.29;59.64
9059;BME280;4564;42.034;25.834;2023-04-27T08:26:47;100072.22;;;18.38;62.35
9059;BME280;4564;42.034;25.834;2023-04-27T08:29:13;100065.81;;;19.06;59.75
9059;BME280;4564;42.034;25.834;2023-04-27T08:31:40;100070.75;;;19.04;56.22
9059;BME280;4564;42.034;25.834;2023-04-27T08:34:07;100085.66;;;18.63;55.75
9059;BME280;4564;42.034;25.834;2023-04-27T08:36:33;100079.34;;;17.99;57.93
9059;BME280;4564;42.034;25.834;2023-04-27T08:39:00;100070.78;;;18.35;62.68
9059;BME280;4564;42.034;25.834;2023-04-27T08:41:31;100074.13;;;18.77;55.73
9059;BME280;4564;42.034;25.834;2023-04-27T08:43:58;100073.59;;;18.12;57.79
9059;BME280;4564;42.034;25.834;2023-04-27T08:46:25;100076.03;;;17.85;59.13
9059;BME280;4564;42.034;25.834;2023-04-27T08:48:52;100073.50;;;17.72;59.47
9059;BME280;4564;42.034;25.834;2023-04-27T08:51:19;100073.25;;;17.50;60.43
9059;BME280;4564;42.034;25.834;2023-04-27T08:53:47;100077.22;;;17.89;61.03
9059;BME280;4564;42.034;25.834;2023-04-27T08:56:14;100062.50;;;18.47;57.92
9059;BME280;4564;42.034;25.834;2023-04-27T08:58:42;100059.78;;;18.75;55.96
9059;BME280;4564;42.034;25.834;2023-04-27T09:01:09;100067.16;;;18.46;57.96
9059;BME280;4564;42.034;25.834;2023-04-27T09:03:36;100069.66;;;18.48;55.01
9059;BME280;4564;42.034;25.834;2023-04-27T09:06:03;100064.31;;;18.01;57.20
9059;BME280;4564;42.034;25.834;2023-04-27T09:08:39;100072.03;;;18.16;56.99
9059;BME280;4564;42.034;25.834;2023-04-27T09:11:06;100064.47;;;18.35;55.10
9059;BME280;4564;42.034;25.834;2023-04-27T09:13:33;100058.84;;;17.78;57.49
9059;BME280;4564;42.034;25.834;2023-04-27T09:16:02;100063.59;;;17.71;55.71
9059;BME280;4564;42.034;25.834;2023-04-27T09:18:29;100050.44;;;17.50;56.93
9059;BME280;4564;42.034;25.834;2023-04-27T09:20:58;100055.69;;;17.28;57.01
9059;BME280;4564;42.034;25.834;2023-04-27T09:23:25;100056.78;;;17.39;58.44
9059;BME280;4564;42.034;25.834;2023-04-27T09:25:52;100065.97;;;17.56;58.02
9059;BME280;4564;42.034;25.834;2023-04-27T09:28:20;100063.34;;;17.38;57.13
9059;BME280;4564;42.034;25.834;2023-04-27T09:30:50;100053.19;;;17.27;58.94
9059;BME280;4564;42.034;25.834;2023-04-27T09:33:23;100059.06;;;17.42;57.48
9059;BME280;4564;42.034;25.834;2023-04-27T09:35:50;100060.59;;;17.49;54.03
9059;BME280;4564;42.034;25.834;2023-04-27T09:38:17;100049.50;;;17.33;56.64
9059;BME280;4564;42.034;25.834;2023-04-27T09:40:44;100049.41;;;17.63;55.38
9059;BME280;4564;42.034;25.834;2023-04-27T09:43:11;100049.03;;;17.59;56.88
9059;BME280;4564;42.034;25.834;2023-04-27T09:45:38;100045.53;;;18.10;55.36
9059;BME280;4564;42.034;25.834;2023-04-27T09:48:05;100044.63;;;18.33;55.33
9059;BME280;4564;42.034;25.834;2023-04-27T09:50:34;100045.06;;;18.41;55.65
9059;BME280;4564;42.034;25.834;2023-04-27T09:53:01;100049.16;;;18.39;54.47
9059;BME280;4564;42.034;25.834;2023-04-27T09:55:29;100053.66;;;18.57;52.16
9059;BME280;4564;42.034;25.834;2023-04-27T09:58:04;100045.44;;;17.93;53.51
9059;BME280;4564;42.034;25.834;2023-04-27T10:00:39;100041.97;;;17.16;54.91
9059;BME280;4564;42.034;25.834;2023-04-27T10:03:13;100047.59;;;16.80;57.55
9059;BME280;4564;42.034;25.834;2023-04-27T10:05:49;100050.75;;;16.95;57.24
9059;BME280;4564;42.034;25.834;2023-04-27T10:08:28;100052.56;;;17.13;55.19
9059;BME280;4564;42.034;25.834;2023-04-27T10:10:55;100050.97;;;16.82;55.85
9059;BME280;4564;42.034;25.834;2023-04-27T10:13:22;100038.28;;;16.69;57.62
9059;BME280;4564;42.034;25.834;2023-04-27T10:15:49;100046.53;;;16.81;57.74
9059;BME280;4564;42.034;25.834;2023-04-27T10:18:26;100049.72;;;17.19;57.19
9059;BME280;4564;42.034;25.834;2023-04-27T10:20:54;100054.91;;;17.63;55.63
9059;BME280;4564;42.034;25.834;2023-04-27T10:23:21;100063.59;;;17.71;56.43
9059;BME280;4564;42.034;25.834;2023-04-27T10:25:48;100052.28;;;17.79;53.61
9059;BME280;4564;42.034;25.834;2023-04-27T10:28:15;100069.09;;;17.71;54.68
9059;BME280;4564;42.034;25.834;2023-04-27T10:30:42;100057.50;;;17.57;55.78
9059;BME280;4564;42.034;25.834;2023-04-27T10:33:10;100063.97;;;17.75;55.46
9059;BME280;4564;42.034;25.834;2023-04-27T10:35:37;100057.88;;;17.73;55.43
9059;BME280;4564;42.034;25.834;2023-04-27T10:38:06;100063.25;;;18.02;55.15
9059;BME280;4564;42.034;25.834;2023-04-27T10:40:34;100057.97;;;18.01;56.20
9059;BME280;4564;42.034;25.834;2023-04-27T10:43:07;100056.00;;;18.25;53.99
9059;BME280;4564;42.034;25.834;2023-04-27T10:45:33;100071.91;;;18.11;51.97
9059;BME280;4564;42.034;25.834;2023-04-27T10:48:02;100057.63;;;17.97;56.43
9059;BME280;4564;42.034;25.834;2023-04-27T10:50:29;100061.38;;;18.20;56.32
9059;BME280;4564;42.034;25.834;2023-04-27T10:52:58;100058.97;;;18.35;52.24
9059;BME280;4564;42.034;25.834;2023-04-27T10:55:27;100064.03;;;18.15;54.71
9059;BME280;4564;42.034;25.834;2023-04-27T10:57:54;100070.06;;;18.40;52.15
9059;BME280;4564;42.034;25.834;2023-04-27T11:00:21;100066.78;;;18.15;54.11
9059;BME280;4564;42.034;25.834;2023-04-27T11:02:49;100067.41;;;17.93;54.84
9059;BME280;4564;42.034;25.834;2023-04-27T11:05:16;100060.75;;;17.66;54.70
9059;BME280;4564;42.034;25.834;2023-04-27T11:07:43;100060.34;;;17.28;55.27
9059;BME280;4564;42.034;25.834;2023-04-27T11:10:13;100065.00;;;17.39;57.80
9059;BME280;4564;42.034;25.834;2023-04-27T11:12:41;100068.47;;;17.46;56.88
9059;BME280;4564;42.034;25.834;2023-04-27T11:15:08;100063.66;;;17.18;57.17
9059;BME280;4564;42.034;25.834;2023-04-27T11:17:35;100051.59;;;17.07;57.95
9059;BME280;4564;42.034;25.834;2023-04-27T11:20:03;100060.94;;;17.30;58.20
9059;BME280;4564;42.034;25.834;2023-04-27T11:22:31;100068.53;;;17.69;54.04
9059;BME280;4564;42.034;25.834;2023-04-27T11:24:58;100070.03;;;17.88;56.03
9059;BME280;4564;42.034;25.834;2023-04-27T11:27:34;100069.31;;;18.04;54.19
9059;BME280;4564;42.034;25.834;2023-04-27T11:30:03;100070.53;;;17.85;53.81
9059;BME280;4564;42.034;25.834;2023-04-27T11:32:30;100068.41;;;17.76;53.56
9059;BME280;4564;42.034;25.834;2023-04-27T11:34:57;100065.78;;;17.69;56.16
9059;BME280;4564;42.034;25.834;2023-04-27T11:37:24;100059.31;;;17.75;57.88
9059;BME280;4564;42.034;25.834;2023-04-27T11:39:51;100056.69;;;17.80;55.20
9059;BME280;4564;42.034;25.834;2023-04-27T11:42:19;100065.47;;;18.06;54.08
9059;BME280;4564;42.034;25.834;2023-04-27T11:44:53;100075.06;;;17.91;54.03
9059;BME280;4564;42.034;25.834;2023-04-27T11:47:23;100062.03;;;17.87;58.27
9059;BME280;4564;42.034;25.834;2023-04-27T11:49:50;100064.28;;;18.13;54.97
9059;BME280;4564;42.034;25.834;2023-04-27T11:52:17;100066.75;;;18.26;53.49
9059;BME280;4564;42.034;25.834;2023-04-27T11:54:47;100066.75;;;18.26;53.52
9059;BME280;4564;42.034;25.834;2023-04-27T11:57:14;100067.28;;;18.12;55.01
9059;BME280;4564;42.034;25.834;2023-04-27T11:59:41;100067.56;;;18.38;56.04
9059;BME280;4564;42.034;25.834;2023-04-27T12:02:08;100068.28;;;18.34;54.98
9059;BME280;4564;42.034;25.834;2023-04-27T12:04:36;100070.69;;;18.70;55.13
9059;BME280;4564;42.034;25.834;2023-04-27T12:07:03;100057.31;;;18.91;52.88
9059;BME280;4564;42.034;25.834;2023-04-27T12:09:30;100063.69;;;19.08;55.16
9059;BME280;4564;42.034;25.834;2023-04-27T12:11:56;100064.19;;;19.21;50.06
9059;BME280;4564;42.034;25.834;2023-04-27T12:14:23;100073.69;;;19.14;51.49
9059;BME280;4564;42.034;25.834;2023-04-27T12:16:50;100063.69;;;18.79;52.18
9059;BME280;4564;42.034;25.834;2023-04-27T12:19:17;100067.09;;;18.70;53.63
9059;BME280;4564;42.034;25.834;2023-04-27T12:21:45;100064.69;;;18.73;51.93
9059;BME280;4564;42.034;25.834;2023-04-27T12:24:12;100077.06;;;18.59;54.01
9059;BME280;4564;42.034;25.834;2023-04-27T12:26:38;100068.38;;;18.79;53.24
9059;BME280;4564;42.034;25.834;2023-04-27T12:29:05;100067.31;;;18.97;52.30
9059;BME280;4564;42.034;25.834;2023-04-27T12:31:31;100064.47;;;18.92;53.44
9059;BME280;4564;42.034;25.834;2023-04-27T12:33:58;100065.81;;;19.06;52.59
9059;BME280;4564;42.034;25.834;2023-04-27T12:36:25;100063.50;;;18.98;52.73
9059;BME280;4564;42.034;25.834;2023-04-27T12:38:56;100068.13;;;18.80;52.15
9059;BME280;4564;42.034;25.834;2023-04-27T12:41:23;100063.75;;;18.96;53.23
9059;BME280;4564;42.034;25.834;2023-04-27T12:43:49;100065.03;;;19.05;52.57
9059;BME280;4564;42.034;25.834;2023-04-27T12:46:16;100063.19;;;19.11;50.97
9059;BME280;4564;42.034;25.834;2023-04-27T12:48:43;100063.66;;;18.91;52.72
9059;BME280;4564;42.034;25.834;2023-04-27T12:51:10;100072.28;;;18.66;53.06
9059;BME280;4564;42.034;25.834;2023-04-27T12:53:37;100068.09;;;18.52;53.83
9059;BME280;4564;42.034;25.834;2023-04-27T12:56:05;100058.47;;;18.78;52.28
9059;BME280;4564;42.034;25.834;2023-04-27T12:58:32;100063.78;;;18.84;53.43
9059;BME280;4564;42.034;25.834;2023-04-27T13:00:58;100061.31;;;18.43;52.72
9059;BME280;4564;42.034;25.834;2023-04-27T13:03:26;100062.25;;;18.60;53.50
9059;BME280;4564;42.034;25.834;2023-04-27T13:05:52;100057.94;;;18.53;53.12
9059;BME280;4564;42.034;25.834;2023-04-27T13:08:19;100062.03;;;18.50;54.84
9059;BME280;4564;42.034;25.834;2023-04-27T13:10:46;100047.84;;;18.70;52.69
9059;BME280;4564;42.034;25.834;2023-04-27T13:13:14;100058.34;;;18.56;53.73
9059;BME280;4564;42.034;25.834;2023-04-27T13:15:41;100048.19;;;18.45;55.29
9059;BME280;4564;42.034;25.834;2023-04-27T13:18:07;100048.97;;;18.29;54.75
9059;BME280;4564;42.034;25.834;2023-04-27T13:20:34;100060.44;;;18.14;54.93
9059;BME280;4564;42.034;25.834;2023-04-27T13:23:02;100038.03;;;18.06;55.08
9059;BME280;4564;42.034;25.834;2023-04-27T13:25:30;100046.50;;;17.92;55.10
9059;BME280;4564;42.034;25.834;2023-04-27T13:27:56;100045.94;;;17.90;55.50
9059;BME280;4564;42.034;25.834;2023-04-27T13:30:24;100049.03;;;17.82;54.76
9059;BME280;4564;42.034;25.834;2023-04-27T13:32:51;100038.94;;;17.59;56.77
9059;BME280;4564;42.034;25.834;2023-04-27T13:35:17;100046.28;;;17.47;56.48
9059;BME280;4564;42.034;25.834;2023-04-27T13:37:46;100050.22;;;17.40;56.73
9059;BME280;4564;42.034;25.834;2023-04-27T13:40:12;100048.78;;;17.26;57.47
9059;BME280;4564;42.034;25.834;2023-04-27T13:42:39;100053.63;;;17.12;56.65
9059;BME280;4564;42.034;25.834;2023-04-27T13:45:06;100053.97;;;16.92;58.50
9059;BME280;4564;42.034;25.834;2023-04-27T13:47:34;100050.03;;;16.88;59.73
9059;BME280;4564;42.034;25.834;2023-04-27T13:50:02;100054.06;;;16.86;57.22
9059;BME280;4564;42.034;25.834;2023-04-27T13:52:30;100056.97;;;16.61;59.66
9059;BME280;4564;42.034;25.834;2023-04-27T13:54:56;100054.22;;;16.43;60.74
9059;BME280;4564;42.034;25.834;2023-04-27T13:57:23;100066.09;;;16.36;60.66
9059;BME280;4564;42.034;25.834;2023-04-27T13:59:50;100063.06;;;16.45;60.57
9059;BME280;4564;42.034;25.834;2023-04-27T14:02:16;100065.72;;;16.51;59.82
9059;BME280;4564;42.034;25.834;2023-04-27T14:04:44;100064.63;;;16.52;59.79
9059;BME280;4564;42.034;25.834;2023-04-27T14:07:11;100068.44;;;16.51;61.41
9059;BME280;4564;42.034;25.834;2023-04-27T14:09:39;100059.13;;;16.41;60.48
9059;BME280;4564;42.034;25.834;2023-04-27T14:12:06;100066.09;;;16.36;61.60
9059;BME280;4564;42.034;25.834;2023-04-27T14:14:33;100065.72;;;16.33;62.29
9059;BME280;4564;42.034;25.834;2023-04-27T14:17:01;100060.09;;;16.46;62.03
9059;BME280;4564;42.034;25.834;2023-04-27T14:19:27;100070.09;;;16.52;62.09
9059;BME280;4564;42.034;25.834;2023-04-27T14:21:55;100069.44;;;16.57;62.02
9059;BME280;4564;42.034;25.834;2023-04-27T14:24:22;100075.34;;;16.54;64.27
9059;BME280;4564;42.034;25.834;2023-04-27T14:26:49;100069.34;;;16.63;63.59
9059;BME280;4564;42.034;25.834;2023-04-27T14:29:15;100069.88;;;16.54;61.46
9059;BME280;4564;42.034;25.834;2023-04-27T14:31:42;100071.50;;;16.43;62.19
9059;BME280;4564;42.034;25.834;2023-04-27T14:34:09;100075.09;;;16.25;62.18
9059;BME280;4564;42.034;25.834;2023-04-27T14:36:36;100071.81;;;15.99;63.96
9059;BME280;4564;42.034;25.834;2023-04-27T14:39:04;100071.53;;;15.88;64.99
9059;BME280;4564;42.034;25.834;2023-04-27T14:41:32;100067.41;;;15.79;65.68
9059;BME280;4564;42.034;25.834;2023-04-27T14:43:59;100075.09;;;15.89;65.25
9059;BME280;4564;42.034;25.834;2023-04-27T14:46:26;100078.75;;;16.01;63.71
9059;BME280;4564;42.034;25.834;2023-04-27T14:48:53;100075.25;;;16.12;62.99
9059;BME280;4564;42.034;25.834;2023-04-27T14:51:20;100079.22;;;16.34;63.19
9059;BME280;4564;42.034;25.834;2023-04-27T14:53:47;100073.94;;;16.33;61.67
9059;BME280;4564;42.034;25.834;2023-04-27T14:56:15;100076.63;;;16.21;62.91
9059;BME280;4564;42.034;25.834;2023-04-27T14:58:41;100075.69;;;16.46;62.38
9059;BME280;4564;42.034;25.834;2023-04-27T15:01:08;100070.03;;;16.59;63.28
9059;BME280;4564;42.034;25.834;2023-04-27T15:03:35;100075.34;;;16.54;62.18
9059;BME280;4564;42.034;25.834;2023-04-27T15:06:01;100074.16;;;16.50;62.46
9059;BME280;4564;42.034;25.834;2023-04-27T15:08:29;100070.34;;;16.51;62.28
9059;BME280;4564;42.034;25.834;2023-04-27T15:10:56;100072.13;;;16.45;63.26
9059;BME280;4564;42.034;25.834;2023-04-27T15:13:25;100062.66;;;16.41;63.59
9059;BME280;4564;42.034;25.834;2023-04-27T15:15:52;100070.56;;;16.49;62.79
9059;BME280;4564;42.034;25.834;2023-04-27T15:18:19;100060.31;;;16.45;63.08
9059;BME280;4564;42.034;25.834;2023-04-27T15:20:48;100058.47;;;16.57;62.55
9059;BME280;4564;42.034;25.834;2023-04-27T15:23:15;100064.72;;;16.46;63.52
9059;BME280;4564;42.034;25.834;2023-04-27T15:25:42;100055.53;;;16.40;62.89
9059;BME280;4564;42.034;25.834;2023-04-27T15:28:09;100053.94;;;16.32;62.24
9059;BME280;4564;42.034;25.834;2023-04-27T15:30:37;100053.88;;;16.21;61.49
9059;BME280;4564;42.034;25.834;2023-04-27T15:33:03;100052.16;;;16.08;62.49
9059;BME280;4564;42.034;25.834;2023-04-27T15:35:30;100059.97;;;16.23;61.85
9059;BME280;4564;42.034;25.834;2023-04-27T15:37:57;100066.22;;;16.12;61.58
9059;BME280;4564;42.034;25.834;2023-04-27T15:40:23;100067.44;;;15.98;62.81
9059;BME280;4564;42.034;25.834;2023-04-27T15:42:50;100068.63;;;15.83;63.14
9059;BME280;4564;42.034;25.834;2023-04-27T15:45:17;100076.41;;;15.86;62.24
9059;BME280;4564;42.034;25.834;2023-04-27T15:47:45;100073.69;;;15.62;63.42
9059;BME280;4564;42.034;25.834;2023-04-27T15:50:11;100076.97;;;15.45;64.48
9059;BME280;4564;42.034;25.834;2023-04-27T15:52:38;100076.47;;;15.30;64.52
9059;BME280;4564;42.034;25.834;2023-04-27T15:55:05;100078.94;;;15.13;65.29
9059;BME280;4564;42.034;25.834;2023-04-27T15:57:33;100088.97;;;14.95;66.41
9059;BME280;4564;42.034;25.834;2023-04-27T16:00:00;100091.06;;;14.93;67.11
9059;BME280;4564;42.034;25.834;2023-04-27T16:02:31;100098.28;;;14.81;68.00
9059;BME280;4564;42.034;25.834;2023-04-27T16:04:58;100098.75;;;14.78;68.61
9059;BME280;4564;42.034;25.834;2023-04-27T16:07:25;100094.16;;;14.72;70.07
9059;BME280;4564;42.034;25.834;2023-04-27T16:09:52;100091.03;;;14.68;69.13
9059;BME280;4564;42.034;25.834;2023-04-27T16:12:19;100102.03;;;14.48;70.09
9059;BME280;4564;42.034;25.834;2023-04-27T16:14:45;100101.00;;;14.49;70.21
9059;BME280;4564;42.034;25.834;2023-04-27T16:17:12;100100.59;;;14.46;69.91
9059;BME280;4564;42.034;25.834;2023-04-27T16:19:38;100102.94;;;14.36;70.97
9059;BME280;4564;42.034;25.834;2023-04-27T16:22:06;100108.41;;;14.29;72.19
9059;BME280;4564;42.034;25.834;2023-04-27T16:24:33;100117.44;;;14.29;72.45
9059;BME280;4564;42.034;25.834;2023-04-27T16:26:59;100117.28;;;14.05;74.89
9059;BME280;4564;42.034;25.834;2023-04-27T16:29:27;100111.03;;;13.84;77.52
9059;BME280;4564;42.034;25.834;2023-04-27T16:31:54;100132.22;;;13.82;77.65
9059;BME280;4564;42.034;25.834;2023-04-27T16:34:21;100124.69;;;13.71;79.08
9059;BME280;4564;42.034;25.834;2023-04-27T16:36:47;100129.75;;;13.68;79.31
9059;BME280;4564;42.034;25.834;2023-04-27T16:39:15;100133.34;;;13.49;81.56
9059;BME280;4564;42.034;25.834;2023-04-27T16:41:43;100134.38;;;13.28;84.02
9059;BME280;4564;42.034;25.834;2023-04-27T16:44:09;100136.66;;;13.18;85.29
9059;BME280;4564;42.034;25.834;2023-04-27T16:46:36;100129.28;;;13.05;85.57
9059;BME280;4564;42.034;25.834;2023-04-27T16:49:03;100135.75;;;12.97;87.12
9059;BME280;4564;42.034;25.834;2023-04-27T16:51:30;100138.47;;;12.91;87.46
9059;BME280;4564;42.034;25.834;2023-04-27T16:53:56;100138.66;;;12.83;87.77
9059;BME280;4564;42.034;25.834;2023-04-27T16:56:25;100142.84;;;12.72;87.63
9059;BME280;4564;42.034;25.834;2023-04-27T16:58:52;100145.94;;;12.63;88.13
9059;BME280;4564;42.034;25.834;2023-04-27T17:01:19;100150.09;;;12.52;88.92
9059;BME280;4564;42.034;25.834;2023-04-27T17:03:45;100158.03;;;12.47;89.18
9059;BME280;4564;42.034;25.834;2023-04-27T17:06:12;100163.41;;;12.34;88.89
9059;BME280;4564;42.034;25.834;2023-04-27T17:08:39;100165.09;;;12.35;87.09
9059;BME280;4564;42.034;25.834;2023-04-27T17:11:06;100168.84;;;12.34;87.88
9059;BME280;4564;42.034;25.834;2023-04-27T17:13:34;100170.41;;;12.56;84.39
9059;BME280;4564;42.034;25.834;2023-04-27T17:16:01;100167.72;;;12.69;82.64
9059;BME280;4564;42.034;25.834;2023-04-27T17:18:28;100185.28;;;12.60;84.13
9059;BME280;4564;42.034;25.834;2023-04-27T17:20:54;100193.41;;;12.47;84.97
9059;BME280;4564;42.034;25.834;2023-04-27T17:23:22;100193.09;;;12.29;85.30
9059;BME280;4564;42.034;25.834;2023-04-27T17:25:49;100201.88;;;12.24;85.63
9059;BME280;4564;42.034;25.834;2023-04-27T17:28:15;100198.06;;;12.18;85.77
9059;BME280;4564;42.034;25.834;2023-04-27T17:30:43;100207.06;;;12.19;85.44
9059;BME280;4564;42.034;25.834;2023-04-27T17:33:10;100203.03;;;12.15;84.69
9059;BME280;4564;42.034;25.834;2023-04-27T17:35:39;100207.16;;;12.04;86.43
9059;BME280;4564;42.034;25.834;2023-04-27T17:38:08;100197.25;;;11.90;87.08
9059;BME280;4564;42.034;25.834;2023-04-27T17:40:35;100201.19;;;11.88;87.37
9059;BME280;4564;42.034;25.834;2023-04-27T17:43:01;100208.06;;;11.84;89.16
9059;BME280;4564;42.034;25.834;2023-04-27T17:45:28;100212.81;;;11.75;89.59
9059;BME280;4564;42.034;25.834;2023-04-27T17:47:57;100215.38;;;11.83;89.04
9059;BME280;4564;42.034;25.834;2023-04-27T17:50:24;100216.94;;;11.71;89.58
9059;BME280;4564;42.034;25.834;2023-04-27T17:52:51;100220.56;;;11.57;90.72
9059;BME280;4564;42.034;25.834;2023-04-27T17:55:18;100225.31;;;11.48;92.38
9059;BME280;4564;42.034;25.834;2023-04-27T17:57:45;100225.31;;;11.48;92.97
9059;BME280;4564;42.034;25.834;2023-04-27T18:00:12;100220.97;;;11.54;93.69
9059;BME280;4564;42.034;25.834;2023-04-27T18:02:39;100240.25;;;11.59;94.56
9059;BME280;4564;42.034;25.834;2023-04-27T18:05:07;100239.47;;;11.65;94.21
9059;BME280;4564;42.034;25.834;2023-04-27T18:07:34;100239.50;;;11.71;92.18
9059;BME280;4564;42.034;25.834;2023-04-27T18:10:02;100247.22;;;11.68;92.52
9059;BME280;4564;42.034;25.834;2023-04-27T18:12:29;100250.38;;;11.71;92.06
9059;BME280;4564;42.034;25.834;2023-04-27T18:14:55;100247.66;;;11.71;92.55
9059;BME280;4564;42.034;25.834;2023-04-27T18:17:23;100247.88;;;11.70;93.33
9059;BME280;4564;42.034;25.834;2023-04-27T18:19:50;100249.94;;;11.68;94.26
9059;BME280;4564;42.034;25.834;2023-04-27T18:22:18;100239.47;;;11.65;93.65
9059;BME280;4564;42.034;25.834;2023-04-27T18:24:45;100261.22;;;11.65;93.99
9059;BME280;4564;42.034;25.834;2023-04-27T18:27:12;100256.63;;;11.65;91.08
9059;BME280;4564;42.034;25.834;2023-04-27T18:29:40;100256.66;;;11.72;91.81
9059;BME280;4564;42.034;25.834;2023-04-27T18:32:07;100262.59;;;11.75;92.29
9059;BME280;4564;42.034;25.834;2023-04-27T18:34:34;100268.47;;;11.79;92.39
9059;BME280;4564;42.034;25.834;2023-04-27T18:37:01;100269.13;;;11.81;93.55
9059;BME280;4564;42.034;25.834;2023-04-27T18:39:29;100281.88;;;11.81;92.83
9059;BME280;4564;42.034;25.834;2023-04-27T18:41:55;100280.63;;;11.83;90.90
9059;BME280;4564;42.034;25.834;2023-04-27T18:44:22;100287.56;;;11.86;90.49
9059;BME280;4564;42.034;25.834;2023-04-27T18:46:49;100280.88;;;11.88;89.55
9059;BME280;4564;42.034;25.834;2023-04-27T18:49:16;100286.97;;;11.90;89.08
9059;BME280;4564;42.034;25.834;2023-04-27T18:51:42;100282.56;;;11.89;88.50
9059;BME280;4564;42.034;25.834;2023-04-27T18:54:09;100290.53;;;11.91;88.83
9059;BME280;4564;42.034;25.834;2023-04-27T18:56:37;100287.63;;;11.92;88.32
9059;BME280;4564;42.034;25.834;2023-04-27T18:59:03;100300.84;;;11.95;85.37
9059;BME280;4564;42.034;25.834;2023-04-27T19:01:30;100296.41;;;11.94;86.08
9059;BME280;4564;42.034;25.834;2023-04-27T19:03:57;100308.81;;;11.97;87.24
9059;BME280;4564;42.034;25.834;2023-04-27T19:06:24;100295.84;;;11.99;87.62
9059;BME280;4564;42.034;25.834;2023-04-27T19:08:51;100295.22;;;11.97;87.61
9059;BME280;4564;42.034;25.834;2023-04-27T19:11:18;100297.09;;;11.96;87.47
9059;BME280;4564;42.034;25.834;2023-04-27T19:13:48;100303.56;;;11.95;87.93
9059;BME280;4564;42.034;25.834;2023-04-27T19:16:16;100303.56;;;11.95;88.70
9059;BME280;4564;42.034;25.834;2023-04-27T19:18:43;100297.94;;;11.97;88.78
9059;BME280;4564;42.034;25.834;2023-04-27T19:21:10;100305.91;;;11.98;89.07
9059;BME280;4564;42.034;25.834;2023-04-27T19:23:37;100303.19;;;11.98;89.65
9059;BME280;4564;42.034;25.834;2023-04-27T19:26:04;100301.28;;;11.99;90.13
9059;BME280;4564;42.034;25.834;2023-04-27T19:28:32;100300.91;;;12.02;90.44
9059;BME280;4564;42.034;25.834;2023-04-27T19:31:01;100295.03;;;11.98;91.19
9059;BME280;4564;42.034;25.834;2023-04-27T19:33:28;100300.00;;;11.95;91.71
9059;BME280;4564;42.034;25.834;2023-04-27T19:35:55;100306.69;;;11.92;92.61
9059;BME280;4564;42.034;25.834;2023-04-27T19:38:23;100303.69;;;11.87;93.60
9059;BME280;4564;42.034;25.834;2023-04-27T19:40:51;100309.16;;;11.87;93.44
9059;BME280;4564;42.034;25.834;2023-04-27T19:43:18;100311.59;;;11.82;93.32
9059;BME280;4564;42.034;25.834;2023-04-27T19:45:45;100311.53;;;11.75;91.84
9059;BME280;4564;42.034;25.834;2023-04-27T19:48:14;100317.31;;;11.72;91.19
9059;BME280;4564;42.034;25.834;2023-04-27T19:50:41;100312.88;;;11.65;91.59
9059;BME280;4564;42.034;25.834;2023-04-27T19:53:09;100312.22;;;11.63;91.56
9059;BME280;4564;42.034;25.834;2023-04-27T19:55:36;100319.59;;;11.69;90.65
9059;BME280;4564;42.034;25.834;2023-04-27T19:58:05;100317.63;;;11.63;92.07
9059;BME280;4564;42.034;25.834;2023-04-27T20:00:32;100324.03;;;11.55;92.82
9059;BME280;4564;42.034;25.834;2023-04-27T20:03:00;100323.31;;;11.47;93.98
9059;BME280;4564;42.034;25.834;2023-04-27T20:05:29;100325.31;;;11.38;95.67
9059;BME280;4564;42.034;25.834;2023-04-27T20:07:55;100316.66;;;11.28;97.23
9059;BME280;4564;42.034;25.834;2023-04-27T20:10:22;100326.00;;;11.25;98.65
9059;BME280;4564;42.034;25.834;2023-04-27T20:12:50;100327.44;;;11.21;99.41
9059;BME280;4564;42.034;25.834;2023-04-27T20:15:17;100332.88;;;11.21;100.00
9059;BME280;4564;42.034;25.834;2023-04-27T20:17:45;100329.97;;;11.08;98.67
9059;BME280;4564;42.034;25.834;2023-04-27T20:20:13;100318.56;;;10.98;99.01
9059;BME280;4564;42.034;25.834;2023-04-27T20:22:42;100322.97;;;10.99;98.98
9059;BME280;4564;42.034;25.834;2023-04-27T20:25:09;100323.53;;;10.94;99.75
9059;BME280;4564;42.034;25.834;2023-04-27T20:27:39;100324.75;;;10.92;99.77
9059;BME280;4564;42.034;25.834;2023-04-27T20:30:06;100320.56;;;10.89;99.55
9059;BME280;4564;42.034;25.834;2023-04-27T20:32:33;100331.97;;;10.85;99.10